sensor_id;sensor_type;location;lat;lon;timestamp;pressure;altitude;pressure_sealevel;temperature;humidity
7182;BME280;3632;42.724;23.298;2022-09-12T00:00:21;95182.41;;;18.11;89.27
7182;BME280;3632;42.724;23.298;2022-09-12T00:02:51;95185.97;;;18.02;89.85
7182;BME280;3632;42.724;23.298;2022-09-12T00:05:18;95172.16;;;17.87;90.26
7182;BME280;3632;42.724;23.298;2022-09-12T00:07:45;95194.09;;;17.91;91.02
7182;BME280;3632;42.724;23.298;2022-09-12T00:10:13;95201.50;;;17.94;90.02
7182;BME280;3632;42.724;23.298;2022-09-12T00:12:40;95164.66;;;17.77;89.55
7182;BME280;3632;42.724;23.298;2022-09-12T00:15:08;95165.28;;;17.71;88.83
7182;BME280;3632;42.724;23.298;2022-09-12T00:17:36;95197.63;;;17.90;89.48
7182;BME280;3632;42.724;23.298;2022-09-12T00:20:05;95211.16;;;17.92;89.10
7182;BME280;3632;42.724;23.298;2022-09-12T00:22:33;95185.72;;;17.80;88.46
7182;BME280;3632;42.724;23.298;2022-09-12T00:25:00;95199.91;;;17.85;88.64
7182;BME280;3632;42.724;23.298;2022-09-12T00:27:29;95133.59;;;17.54;88.05
7182;BME280;3632;42.724;23.298;2022-09-12T00:29:56;95098.41;;;17.30;87.54
7182;BME280;3632;42.724;23.298;2022-09-12T00:32:22;95206.06;;;17.67;88.71
7182;BME280;3632;42.724;23.298;2022-09-12T00:34:49;95235.34;;;17.83;87.60
7182;BME280;3632;42.724;23.298;2022-09-12T00:37:16;95172.91;;;17.64;87.82
7182;BME280;3632;42.724;23.298;2022-09-12T00:39:43;95053.72;;;16.91;87.28
7182;BME280;3632;42.724;23.298;2022-09-12T00:42:11;95147.78;;;17.50;87.43
7182;BME280;3632;42.724;23.298;2022-09-12T00:44:46;95194.94;;;17.75;87.83
7182;BME280;3632;42.724;23.298;2022-09-12T00:47:17;95150.53;;;17.32;86.96
7182;BME280;3632;42.724;23.298;2022-09-12T00:49:48;95188.81;;;17.76;86.92
7182;BME280;3632;42.724;23.298;2022-09-12T00:52:22;95197.34;;;17.76;87.02
7182;BME280;3632;42.724;23.298;2022-09-12T00:54:54;95095.06;;;16.98;86.89
7182;BME280;3632;42.724;23.298;2022-09-12T00:57:25;95177.06;;;17.49;87.59
7182;BME280;3632;42.724;23.298;2022-09-12T00:59:58;95092.50;;;17.06;87.20
7182;BME280;3632;42.724;23.298;2022-09-12T01:02:27;95166.47;;;17.52;87.08
7182;BME280;3632;42.724;23.298;2022-09-12T01:04:54;95191.91;;;17.63;87.42
7182;BME280;3632;42.724;23.298;2022-09-12T01:07:21;95150.72;;;17.39;87.41
7182;BME280;3632;42.724;23.298;2022-09-12T01:09:48;95108.09;;;17.12;86.92
7182;BME280;3632;42.724;23.298;2022-09-12T01:12:16;95167.59;;;17.42;87.31
7182;BME280;3632;42.724;23.298;2022-09-12T01:14:43;95083.97;;;16.81;87.73
7182;BME280;3632;42.724;23.298;2022-09-12T01:17:13;95105.09;;;16.84;88.57
7182;BME280;3632;42.724;23.298;2022-09-12T01:20:19;95188.38;;;17.32;89.25
7182;BME280;3632;42.724;23.298;2022-09-12T01:23:20;95185.66;;;17.33;88.83
7182;BME280;3632;42.724;23.298;2022-09-12T01:26:02;95012.25;;;16.21;88.75
7182;BME280;3632;42.724;23.298;2022-09-12T01:28:52;95184.53;;;17.28;88.79
7182;BME280;3632;42.724;23.298;2022-09-12T01:31:27;95027.88;;;16.20;89.01
7182;BME280;3632;42.724;23.298;2022-09-12T01:34:05;95171.81;;;17.02;89.48
7182;BME280;3632;42.724;23.298;2022-09-12T01:36:43;95181.63;;;17.23;88.66
7182;BME280;3632;42.724;23.298;2022-09-12T01:39:24;95192.44;;;17.18;88.41
7182;BME280;3632;42.724;23.298;2022-09-12T01:42:03;94959.69;;;15.67;88.43
7182;BME280;3632;42.724;23.298;2022-09-12T01:44:38;95143.03;;;16.82;88.60
7182;BME280;3632;42.724;23.298;2022-09-12T01:47:17;95180.34;;;17.19;88.22
7182;BME280;3632;42.724;23.298;2022-09-12T01:49:51;95180.66;;;17.16;88.28
7182;BME280;3632;42.724;23.298;2022-09-12T01:52:26;94998.91;;;15.93;88.19
7182;BME280;3632;42.724;23.298;2022-09-12T01:54:59;94641.84;;;13.65;88.19
7182;BME280;3632;42.724;23.298;2022-09-12T01:57:36;95181.34;;;17.10;88.22
7182;BME280;3632;42.724;23.298;2022-09-12T02:00:09;95158.31;;;17.00;87.66
7182;BME280;3632;42.724;23.298;2022-09-12T02:02:39;95056.97;;;16.28;87.50
7182;BME280;3632;42.724;23.298;2022-09-12T02:05:09;95124.38;;;16.64;87.28
7182;BME280;3632;42.724;23.298;2022-09-12T02:07:41;95100.09;;;16.59;87.27
7182;BME280;3632;42.724;23.298;2022-09-12T02:10:12;95194.03;;;17.03;87.35
7182;BME280;3632;42.724;23.298;2022-09-12T02:12:43;94899.72;;;14.68;86.16
7182;BME280;3632;42.724;23.298;2022-09-12T02:15:17;94950.66;;;14.97;85.59
7182;BME280;3632;42.724;23.298;2022-09-12T02:17:49;95101.31;;;16.46;86.41
7182;BME280;3632;42.724;23.298;2022-09-12T02:20:19;95172.63;;;16.95;86.85
7182;BME280;3632;42.724;23.298;2022-09-12T02:22:49;95035.22;;;15.90;87.10
7182;BME280;3632;42.724;23.298;2022-09-12T02:25:19;95051.94;;;16.03;86.96
7182;BME280;3632;42.724;23.298;2022-09-12T02:27:48;95156.88;;;16.65;87.19
7182;BME280;3632;42.724;23.298;2022-09-12T02:30:16;95126.56;;;16.43;87.49
7182;BME280;3632;42.724;23.298;2022-09-12T02:32:51;95203.53;;;16.20;87.17
7182;BME280;3632;42.724;23.298;2022-09-12T02:35:31;95080.56;;;16.08;87.17
7182;BME280;3632;42.724;23.298;2022-09-12T02:38:05;95142.34;;;16.48;86.97
7182;BME280;3632;42.724;23.298;2022-09-12T02:40:35;94954.91;;;15.14;86.93
7182;BME280;3632;42.724;23.298;2022-09-12T02:43:04;94974.09;;;15.02;87.23
7182;BME280;3632;42.724;23.298;2022-09-12T02:45:32;94908.59;;;14.90;87.43
7182;BME280;3632;42.724;23.298;2022-09-12T02:48:05;94957.72;;;15.03;86.46
7182;BME280;3632;42.724;23.298;2022-09-12T02:50:35;94985.91;;;15.37;86.71
7182;BME280;3632;42.724;23.298;2022-09-12T02:53:03;94935.66;;;14.42;87.10
7182;BME280;3632;42.724;23.298;2022-09-12T02:55:31;94679.13;;;13.34;87.20
7182;BME280;3632;42.724;23.298;2022-09-12T02:58:00;94927.97;;;14.76;87.34
7182;BME280;3632;42.724;23.298;2022-09-12T03:00:29;95119.41;;;15.96;88.06
7182;BME280;3632;42.724;23.298;2022-09-12T03:05:57;95188.94;;;16.37;88.79
7182;BME280;3632;42.724;23.298;2022-09-12T03:08:49;95112.34;;;15.90;88.44
7182;BME280;3632;42.724;23.298;2022-09-12T03:11:25;95013.56;;;14.75;88.27
7182;BME280;3632;42.724;23.298;2022-09-12T03:14:06;95050.53;;;15.50;87.98
7182;BME280;3632;42.724;23.298;2022-09-12T03:16:44;94918.63;;;14.67;87.32
7182;BME280;3632;42.724;23.298;2022-09-12T03:19:23;95110.41;;;15.92;87.63
7182;BME280;3632;42.724;23.298;2022-09-12T03:21:58;95065.66;;;15.61;87.82
7182;BME280;3632;42.724;23.298;2022-09-12T03:24:30;95251.03;;;16.42;87.99
7182;BME280;3632;42.724;23.298;2022-09-12T03:27:05;95065.31;;;15.56;88.04
7182;BME280;3632;42.724;23.298;2022-09-12T03:29:34;95091.19;;;15.63;88.02
7182;BME280;3632;42.724;23.298;2022-09-12T03:32:03;95193.78;;;16.40;88.29
7182;BME280;3632;42.724;23.298;2022-09-12T03:34:31;95195.38;;;16.33;88.78
7182;BME280;3632;42.724;23.298;2022-09-12T03:36:58;95022.53;;;14.71;88.11
7182;BME280;3632;42.724;23.298;2022-09-12T03:39:25;95144.25;;;15.80;88.68
7182;BME280;3632;42.724;23.298;2022-09-12T03:41:52;94957.06;;;14.59;88.90
7182;BME280;3632;42.724;23.298;2022-09-12T03:44:21;94857.28;;;13.96;89.39
7182;BME280;3632;42.724;23.298;2022-09-12T03:46:47;95194.38;;;16.26;89.15
7182;BME280;3632;42.724;23.298;2022-09-12T03:49:14;94953.75;;;14.05;88.66
7182;BME280;3632;42.724;23.298;2022-09-12T03:51:43;94949.94;;;14.09;88.65
7182;BME280;3632;42.724;23.298;2022-09-12T03:54:10;95198.88;;;16.24;89.24
7182;BME280;3632;42.724;23.298;2022-09-12T03:56:38;94968.13;;;14.16;89.47
7182;BME280;3632;42.724;23.298;2022-09-12T03:59:06;94921.94;;;14.34;89.46
7182;BME280;3632;42.724;23.298;2022-09-12T04:01:33;95191.13;;;16.16;89.38
7182;BME280;3632;42.724;23.298;2022-09-12T04:04:02;94889.28;;;13.49;89.89
7182;BME280;3632;42.724;23.298;2022-09-12T04:06:29;94897.63;;;13.51;89.81
7182;BME280;3632;42.724;23.298;2022-09-12T04:08:57;94878.94;;;14.28;88.70
7182;BME280;3632;42.724;23.298;2022-09-12T04:11:24;94934.44;;;14.54;89.58
7182;BME280;3632;42.724;23.298;2022-09-12T04:13:51;95071.47;;;15.37;88.96
7182;BME280;3632;42.724;23.298;2022-09-12T04:16:18;95120.63;;;15.42;89.37
7182;BME280;3632;42.724;23.298;2022-09-12T04:18:45;95220.56;;;16.21;89.20
7182;BME280;3632;42.724;23.298;2022-09-12T04:21:14;95055.97;;;15.13;88.66
7182;BME280;3632;42.724;23.298;2022-09-12T04:23:41;95126.63;;;14.99;88.99
7182;BME280;3632;42.724;23.298;2022-09-12T04:26:10;95010.44;;;14.89;88.70
7182;BME280;3632;42.724;23.298;2022-09-12T04:28:38;94968.91;;;14.60;89.23
7182;BME280;3632;42.724;23.298;2022-09-12T04:31:08;94971.66;;;13.80;89.34
7182;BME280;3632;42.724;23.298;2022-09-12T04:33:35;95145.94;;;15.63;89.27
7182;BME280;3632;42.724;23.298;2022-09-12T04:36:03;95126.69;;;15.67;89.04
7182;BME280;3632;42.724;23.298;2022-09-12T04:38:31;95215.94;;;16.25;89.08
7182;BME280;3632;42.724;23.298;2022-09-12T04:40:58;94925.34;;;13.73;88.73
7182;BME280;3632;42.724;23.298;2022-09-12T04:43:27;95168.56;;;15.93;88.50
7182;BME280;3632;42.724;23.298;2022-09-12T04:45:54;95108.81;;;15.58;88.42
7182;BME280;3632;42.724;23.298;2022-09-12T04:48:21;94929.28;;;13.85;88.34
7182;BME280;3632;42.724;23.298;2022-09-12T04:50:48;94974.56;;;14.02;88.13
7182;BME280;3632;42.724;23.298;2022-09-12T04:53:15;95227.81;;;16.26;88.39
7182;BME280;3632;42.724;23.298;2022-09-12T04:55:42;95001.78;;;14.39;87.96
7182;BME280;3632;42.724;23.298;2022-09-12T04:58:09;95230.91;;;16.37;88.60
7182;BME280;3632;42.724;23.298;2022-09-12T05:00:37;94891.03;;;13.66;88.30
7182;BME280;3632;42.724;23.298;2022-09-12T05:03:04;94963.34;;;14.73;88.38
7182;BME280;3632;42.724;23.298;2022-09-12T05:05:31;95126.47;;;15.94;87.55
7182;BME280;3632;42.724;23.298;2022-09-12T05:07:59;95057.97;;;15.61;87.09
7182;BME280;3632;42.724;23.298;2022-09-12T05:10:26;95234.75;;;16.75;86.62
7182;BME280;3632;42.724;23.298;2022-09-12T05:12:53;94870.56;;;14.17;86.36
7182;BME280;3632;42.724;23.298;2022-09-12T05:15:20;95182.16;;;16.20;86.85
7182;BME280;3632;42.724;23.298;2022-09-12T05:17:48;95202.47;;;16.55;87.24
7182;BME280;3632;42.724;23.298;2022-09-12T05:20:15;95042.03;;;15.58;86.60
7182;BME280;3632;42.724;23.298;2022-09-12T05:22:42;94801.25;;;13.67;85.64
7182;BME280;3632;42.724;23.298;2022-09-12T05:25:09;94965.09;;;14.38;86.33
7182;BME280;3632;42.724;23.298;2022-09-12T05:27:36;94976.53;;;15.12;86.73
7182;BME280;3632;42.724;23.298;2022-09-12T05:30:05;95234.25;;;16.72;86.94
7182;BME280;3632;42.724;23.298;2022-09-12T05:32:32;95124.41;;;16.06;86.83
7182;BME280;3632;42.724;23.298;2022-09-12T05:35:01;95196.16;;;15.91;86.75
7182;BME280;3632;42.724;23.298;2022-09-12T05:37:28;95111.41;;;15.99;86.48
7182;BME280;3632;42.724;23.298;2022-09-12T05:39:55;94992.69;;;14.70;85.48
7182;BME280;3632;42.724;23.298;2022-09-12T05:42:24;94857.56;;;14.11;84.96
7182;BME280;3632;42.724;23.298;2022-09-12T05:44:51;95122.41;;;16.42;85.01
7182;BME280;3632;42.724;23.298;2022-09-12T05:47:18;95125.78;;;15.84;85.06
7182;BME280;3632;42.724;23.298;2022-09-12T05:49:45;95223.31;;;17.10;85.51
7182;BME280;3632;42.724;23.298;2022-09-12T05:52:14;95203.72;;;17.01;84.93
7182;BME280;3632;42.724;23.298;2022-09-12T05:54:41;94996.00;;;15.22;83.61
7182;BME280;3632;42.724;23.298;2022-09-12T05:57:08;95213.66;;;17.36;83.44
7182;BME280;3632;42.724;23.298;2022-09-12T05:59:35;95209.47;;;17.44;83.35
7182;BME280;3632;42.724;23.298;2022-09-12T06:02:02;95200.91;;;17.51;82.65
7182;BME280;3632;42.724;23.298;2022-09-12T06:04:29;95174.03;;;17.38;82.10
7182;BME280;3632;42.724;23.298;2022-09-12T06:06:56;95204.44;;;17.66;81.99
7182;BME280;3632;42.724;23.298;2022-09-12T06:09:24;95186.91;;;17.62;81.61
7182;BME280;3632;42.724;23.298;2022-09-12T06:11:52;95137.84;;;17.15;80.58
7182;BME280;3632;42.724;23.298;2022-09-12T06:14:20;95029.13;;;16.56;81.26
7182;BME280;3632;42.724;23.298;2022-09-12T06:16:47;95226.50;;;17.77;81.22
7182;BME280;3632;42.724;23.298;2022-09-12T06:19:16;95210.53;;;17.90;80.88
7182;BME280;3632;42.724;23.298;2022-09-12T06:21:44;94859.34;;;15.69;80.22
7182;BME280;3632;42.724;23.298;2022-09-12T06:24:12;95114.34;;;17.26;80.80
7182;BME280;3632;42.724;23.298;2022-09-12T06:26:40;95218.56;;;17.87;81.65
7182;BME280;3632;42.724;23.298;2022-09-12T06:29:09;95221.16;;;17.95;81.62
7182;BME280;3632;42.724;23.298;2022-09-12T06:31:38;95215.00;;;17.96;81.76
7182;BME280;3632;42.724;23.298;2022-09-12T06:34:07;95225.94;;;18.06;81.22
7182;BME280;3632;42.724;23.298;2022-09-12T06:36:37;95224.28;;;18.13;81.52
7182;BME280;3632;42.724;23.298;2022-09-12T06:39:06;95163.38;;;17.73;81.00
7182;BME280;3632;42.724;23.298;2022-09-12T06:41:33;95221.97;;;18.26;80.92
7182;BME280;3632;42.724;23.298;2022-09-12T06:44:02;95227.59;;;18.30;80.93
7182;BME280;3632;42.724;23.298;2022-09-12T06:46:29;95232.44;;;18.33;80.87
7182;BME280;3632;42.724;23.298;2022-09-12T06:48:57;95234.94;;;18.49;79.41
7182;BME280;3632;42.724;23.298;2022-09-12T06:51:25;95239.47;;;18.47;79.81
7182;BME280;3632;42.724;23.298;2022-09-12T06:53:54;95235.91;;;18.56;79.57
7182;BME280;3632;42.724;23.298;2022-09-12T06:56:23;95236.06;;;18.54;79.50
7182;BME280;3632;42.724;23.298;2022-09-12T06:58:51;95232.19;;;18.50;78.23
7182;BME280;3632;42.724;23.298;2022-09-12T07:01:21;95208.94;;;18.50;77.12
7182;BME280;3632;42.724;23.298;2022-09-12T07:03:50;95236.50;;;18.66;77.43
7182;BME280;3632;42.724;23.298;2022-09-12T07:06:18;95237.69;;;18.55;77.29
7182;BME280;3632;42.724;23.298;2022-09-12T07:08:45;95236.19;;;18.61;76.74
7182;BME280;3632;42.724;23.298;2022-09-12T07:11:14;95197.41;;;18.38;76.58
7182;BME280;3632;42.724;23.298;2022-09-12T07:13:42;95233.69;;;18.76;75.94
7182;BME280;3632;42.724;23.298;2022-09-12T07:16:09;95232.84;;;18.83;75.38
7182;BME280;3632;42.724;23.298;2022-09-12T07:18:38;95163.53;;;18.41;74.63
7182;BME280;3632;42.724;23.298;2022-09-12T07:21:07;95229.34;;;18.99;74.20
7182;BME280;3632;42.724;23.298;2022-09-12T07:23:35;95235.47;;;18.98;74.63
7182;BME280;3632;42.724;23.298;2022-09-12T07:26:03;95233.88;;;19.20;73.79
7182;BME280;3632;42.724;23.298;2022-09-12T07:28:31;95236.75;;;19.25;72.27
7182;BME280;3632;42.724;23.298;2022-09-12T07:31:04;95228.53;;;19.21;72.18
7182;BME280;3632;42.724;23.298;2022-09-12T07:33:32;95238.38;;;19.40;71.09
7182;BME280;3632;42.724;23.298;2022-09-12T07:36:02;95142.00;;;18.80;69.90
7182;BME280;3632;42.724;23.298;2022-09-12T07:38:30;95242.66;;;19.33;70.78
7182;BME280;3632;42.724;23.298;2022-09-12T07:40:57;95235.06;;;19.32;69.61
7182;BME280;3632;42.724;23.298;2022-09-12T07:43:25;95228.31;;;19.31;68.71
7182;BME280;3632;42.724;23.298;2022-09-12T07:45:55;94699.97;;;15.14;68.53
7182;BME280;3632;42.724;23.298;2022-09-12T07:48:22;95242.81;;;19.32;68.04
7182;BME280;3632;42.724;23.298;2022-09-12T07:50:56;95227.75;;;19.43;67.17
7182;BME280;3632;42.724;23.298;2022-09-12T07:53:26;95218.41;;;19.34;67.32
7182;BME280;3632;42.724;23.298;2022-09-12T07:55:53;95228.56;;;19.58;67.72
7182;BME280;3632;42.724;23.298;2022-09-12T07:58:20;95224.28;;;19.66;67.38
7182;BME280;3632;42.724;23.298;2022-09-12T08:00:47;95235.16;;;19.61;66.16
7182;BME280;3632;42.724;23.298;2022-09-12T08:03:14;95234.09;;;19.55;66.86
7182;BME280;3632;42.724;23.298;2022-09-12T08:05:40;95235.63;;;19.65;66.84
7182;BME280;3632;42.724;23.298;2022-09-12T08:08:08;95238.47;;;19.70;66.76
7182;BME280;3632;42.724;23.298;2022-09-12T08:10:36;95240.88;;;19.71;66.97
7182;BME280;3632;42.724;23.298;2022-09-12T08:13:03;95233.72;;;19.73;67.22
7182;BME280;3632;42.724;23.298;2022-09-12T08:15:30;95129.94;;;18.95;66.27
7182;BME280;3632;42.724;23.298;2022-09-12T08:17:56;94785.31;;;16.35;66.55
7182;BME280;3632;42.724;23.298;2022-09-12T08:20:23;95220.63;;;19.75;66.13
7182;BME280;3632;42.724;23.298;2022-09-12T08:22:50;95161.66;;;19.41;66.04
7182;BME280;3632;42.724;23.298;2022-09-12T08:25:17;95254.00;;;19.99;64.82
7182;BME280;3632;42.724;23.298;2022-09-12T08:27:45;95225.56;;;19.84;65.79
7182;BME280;3632;42.724;23.298;2022-09-12T08:30:13;95223.03;;;19.91;66.50
7182;BME280;3632;42.724;23.298;2022-09-12T08:32:39;95239.91;;;19.87;66.15
7182;BME280;3632;42.724;23.298;2022-09-12T08:35:06;95236.97;;;19.75;65.75
7182;BME280;3632;42.724;23.298;2022-09-12T08:37:33;95246.69;;;19.88;65.26
7182;BME280;3632;42.724;23.298;2022-09-12T08:40:00;95194.88;;;19.81;64.77
7182;BME280;3632;42.724;23.298;2022-09-12T08:42:41;95168.94;;;19.60;64.87
7182;BME280;3632;42.724;23.298;2022-09-12T08:45:18;95135.44;;;19.29;64.86
7182;BME280;3632;42.724;23.298;2022-09-12T08:47:48;95202.81;;;19.80;64.32
7182;BME280;3632;42.724;23.298;2022-09-12T08:50:19;95206.72;;;19.76;64.98
7182;BME280;3632;42.724;23.298;2022-09-12T08:52:54;95197.81;;;19.93;64.39
7182;BME280;3632;42.724;23.298;2022-09-12T08:55:31;95197.25;;;20.12;63.10
7182;BME280;3632;42.724;23.298;2022-09-12T08:57:58;95204.50;;;20.31;62.83
7182;BME280;3632;42.724;23.298;2022-09-12T09:00:34;95197.44;;;20.40;60.58
7182;BME280;3632;42.724;23.298;2022-09-12T09:06:06;95189.00;;;20.52;60.50
7182;BME280;3632;42.724;23.298;2022-09-12T09:08:46;95197.72;;;20.66;59.71
7182;BME280;3632;42.724;23.298;2022-09-12T09:11:25;95087.72;;;20.05;58.91
7182;BME280;3632;42.724;23.298;2022-09-12T09:14:13;95186.88;;;20.77;59.63
7182;BME280;3632;42.724;23.298;2022-09-12T09:17:08;95196.31;;;20.85;58.78
7182;BME280;3632;42.724;23.298;2022-09-12T09:19:39;95189.59;;;20.90;57.94
7182;BME280;3632;42.724;23.298;2022-09-12T09:22:12;95186.56;;;20.87;58.94
7182;BME280;3632;42.724;23.298;2022-09-12T09:24:46;95181.97;;;21.10;58.28
7182;BME280;3632;42.724;23.298;2022-09-12T09:27:24;95190.66;;;21.17;58.12
7182;BME280;3632;42.724;23.298;2022-09-12T09:29:55;95197.28;;;21.26;58.80
7182;BME280;3632;42.724;23.298;2022-09-12T09:32:26;95192.16;;;21.61;57.18
7182;BME280;3632;42.724;23.298;2022-09-12T09:34:53;95191.44;;;21.73;56.21
7182;BME280;3632;42.724;23.298;2022-09-12T09:37:24;95185.25;;;21.68;56.53
7182;BME280;3632;42.724;23.298;2022-09-12T09:40:01;95194.44;;;21.70;56.26
7182;BME280;3632;42.724;23.298;2022-09-12T09:42:37;95182.41;;;21.63;54.59
7182;BME280;3632;42.724;23.298;2022-09-12T09:45:12;95178.03;;;21.63;55.25
7182;BME280;3632;42.724;23.298;2022-09-12T09:47:44;95190.78;;;21.65;56.67
7182;BME280;3632;42.724;23.298;2022-09-12T09:50:13;95091.16;;;20.69;56.95
7182;BME280;3632;42.724;23.298;2022-09-12T09:52:42;95175.91;;;21.46;57.69
7182;BME280;3632;42.724;23.298;2022-09-12T09:55:14;95177.28;;;21.41;56.95
7182;BME280;3632;42.724;23.298;2022-09-12T09:57:44;95186.81;;;21.62;55.38
7182;BME280;3632;42.724;23.298;2022-09-12T10:00:22;95173.03;;;21.62;56.20
7182;BME280;3632;42.724;23.298;2022-09-12T10:03:24;95150.97;;;21.79;55.97
7182;BME280;3632;42.724;23.298;2022-09-12T10:05:53;95145.09;;;21.98;52.87
7182;BME280;3632;42.724;23.298;2022-09-12T10:08:24;95168.88;;;22.56;52.33
7182;BME280;3632;42.724;23.298;2022-09-12T10:10:52;95172.69;;;22.66;51.60
7182;BME280;3632;42.724;23.298;2022-09-12T10:13:24;95166.16;;;22.84;51.07
7182;BME280;3632;42.724;23.298;2022-09-12T10:15:56;95165.38;;;22.70;52.80
7182;BME280;3632;42.724;23.298;2022-09-12T10:18:38;95168.94;;;22.75;51.47
7182;BME280;3632;42.724;23.298;2022-09-12T10:21:24;95163.34;;;22.72;50.35
7182;BME280;3632;42.724;23.298;2022-09-12T10:24:00;95161.31;;;22.67;50.45
7182;BME280;3632;42.724;23.298;2022-09-12T10:26:32;95166.34;;;22.69;51.29
7182;BME280;3632;42.724;23.298;2022-09-12T10:29:05;95157.78;;;22.88;50.54
7182;BME280;3632;42.724;23.298;2022-09-12T10:31:42;95167.78;;;22.85;51.52
7182;BME280;3632;42.724;23.298;2022-09-12T10:34:21;95161.97;;;22.76;51.20
7182;BME280;3632;42.724;23.298;2022-09-12T10:36:52;95156.19;;;22.94;49.05
7182;BME280;3632;42.724;23.298;2022-09-12T10:39:20;95169.38;;;22.86;47.52
7182;BME280;3632;42.724;23.298;2022-09-12T10:41:47;95156.13;;;22.61;48.08
7182;BME280;3632;42.724;23.298;2022-09-12T10:44:16;95171.72;;;22.61;48.75
7182;BME280;3632;42.724;23.298;2022-09-12T10:46:43;95164.78;;;22.88;48.69
7182;BME280;3632;42.724;23.298;2022-09-12T10:49:23;95161.41;;;23.07;48.25
7182;BME280;3632;42.724;23.298;2022-09-12T10:51:52;95157.00;;;23.20;48.92
7182;BME280;3632;42.724;23.298;2022-09-12T10:54:21;95151.22;;;23.12;48.86
7182;BME280;3632;42.724;23.298;2022-09-12T10:56:58;95159.81;;;22.99;48.73
7182;BME280;3632;42.724;23.298;2022-09-12T10:59:40;95159.41;;;23.22;48.47
7182;BME280;3632;42.724;23.298;2022-09-12T11:02:14;95122.38;;;23.40;48.13
7182;BME280;3632;42.724;23.298;2022-09-12T11:04:58;95154.56;;;23.85;47.33
7182;BME280;3632;42.724;23.298;2022-09-12T11:07:40;95168.06;;;24.20;47.31
7182;BME280;3632;42.724;23.298;2022-09-12T11:10:23;95158.06;;;24.17;46.95
7182;BME280;3632;42.724;23.298;2022-09-12T11:13:03;95157.84;;;24.25;46.25
7182;BME280;3632;42.724;23.298;2022-09-12T11:15:54;95165.75;;;23.85;45.75
7182;BME280;3632;42.724;23.298;2022-09-12T11:18:42;95195.44;;;23.45;46.56
7182;BME280;3632;42.724;23.298;2022-09-12T11:21:25;95152.59;;;23.28;48.03
7182;BME280;3632;42.724;23.298;2022-09-12T11:26:55;95155.00;;;24.33;47.33
7182;BME280;3632;42.724;23.298;2022-09-12T11:29:36;95169.94;;;24.50;44.87
7182;BME280;3632;42.724;23.298;2022-09-12T11:32:29;95173.06;;;24.66;44.59
7182;BME280;3632;42.724;23.298;2022-09-12T11:35:05;95036.94;;;23.94;44.36
7182;BME280;3632;42.724;23.298;2022-09-12T11:37:48;95164.28;;;25.23;43.83
7182;BME280;3632;42.724;23.298;2022-09-12T11:40:28;95157.53;;;25.65;42.70
7182;BME280;3632;42.724;23.298;2022-09-12T11:43:00;95148.97;;;25.76;40.85
7182;BME280;3632;42.724;23.298;2022-09-12T11:45:34;95148.03;;;26.07;41.01
7182;BME280;3632;42.724;23.298;2022-09-12T11:48:05;95156.66;;;25.71;40.85
7182;BME280;3632;42.724;23.298;2022-09-12T11:50:33;95145.69;;;25.80;41.34
7182;BME280;3632;42.724;23.298;2022-09-12T11:53:10;95152.22;;;25.46;42.33
7182;BME280;3632;42.724;23.298;2022-09-12T11:55:47;95150.06;;;25.43;42.00
7182;BME280;3632;42.724;23.298;2022-09-12T11:58:22;95146.28;;;25.64;42.22
7182;BME280;3632;42.724;23.298;2022-09-12T12:00:51;95144.53;;;25.76;42.26
7182;BME280;3632;42.724;23.298;2022-09-12T12:03:26;95136.41;;;25.84;40.26
7182;BME280;3632;42.724;23.298;2022-09-12T12:06:00;95145.28;;;26.02;39.58
7182;BME280;3632;42.724;23.298;2022-09-12T12:08:31;95133.25;;;26.01;39.53
7182;BME280;3632;42.724;23.298;2022-09-12T12:11:04;95147.31;;;26.18;39.49
7182;BME280;3632;42.724;23.298;2022-09-12T12:13:34;95156.59;;;26.14;38.50
7182;BME280;3632;42.724;23.298;2022-09-12T12:16:05;95146.16;;;25.53;39.56
7182;BME280;3632;42.724;23.298;2022-09-12T12:18:36;95138.78;;;25.50;39.73
7182;BME280;3632;42.724;23.298;2022-09-12T12:21:24;95010.56;;;24.78;40.12
7182;BME280;3632;42.724;23.298;2022-09-12T12:24:13;95061.22;;;25.14;40.60
7182;BME280;3632;42.724;23.298;2022-09-12T12:26:44;95148.38;;;25.56;41.18
7182;BME280;3632;42.724;23.298;2022-09-12T12:29:35;95123.09;;;25.74;41.64
7182;BME280;3632;42.724;23.298;2022-09-12T12:32:25;95114.66;;;25.72;40.82
7182;BME280;3632;42.724;23.298;2022-09-12T12:38:25;95125.09;;;26.87;39.72
7182;BME280;3632;42.724;23.298;2022-09-12T12:47:16;95145.84;;;26.40;39.96
7182;BME280;3632;42.724;23.298;2022-09-12T12:49:50;95143.09;;;26.17;40.31
7182;BME280;3632;42.724;23.298;2022-09-12T12:52:18;95047.81;;;25.53;40.86
7182;BME280;3632;42.724;23.298;2022-09-12T12:54:50;95125.84;;;25.79;42.20
7182;BME280;3632;42.724;23.298;2022-09-12T12:57:39;95091.84;;;25.43;42.93
7182;BME280;3632;42.724;23.298;2022-09-12T13:00:26;95124.53;;;25.70;42.62
7182;BME280;3632;42.724;23.298;2022-09-12T13:02:56;95143.94;;;25.56;42.79
7182;BME280;3632;42.724;23.298;2022-09-12T13:05:26;95137.88;;;25.62;42.43
7182;BME280;3632;42.724;23.298;2022-09-12T13:07:57;95133.06;;;25.16;42.11
7182;BME280;3632;42.724;23.298;2022-09-12T13:10:27;95130.06;;;24.81;42.01
7182;BME280;3632;42.724;23.298;2022-09-12T13:12:57;95126.41;;;24.57;42.30
7182;BME280;3632;42.724;23.298;2022-09-12T13:15:47;95130.22;;;24.17;43.59
7182;BME280;3632;42.724;23.298;2022-09-12T13:18:19;95126.19;;;24.14;44.01
7182;BME280;3632;42.724;23.298;2022-09-12T13:20:52;95138.25;;;24.02;44.63
7182;BME280;3632;42.724;23.298;2022-09-12T13:23:24;95141.50;;;23.91;44.60
7182;BME280;3632;42.724;23.298;2022-09-12T13:25:53;95135.38;;;23.66;44.25
7182;BME280;3632;42.724;23.298;2022-09-12T13:28:22;95117.75;;;23.61;44.34
7182;BME280;3632;42.724;23.298;2022-09-12T13:30:56;95142.63;;;24.22;43.08
7182;BME280;3632;42.724;23.298;2022-09-12T13:33:30;95133.84;;;24.54;42.48
7182;BME280;3632;42.724;23.298;2022-09-12T13:36:14;95135.69;;;24.78;41.85
7182;BME280;3632;42.724;23.298;2022-09-12T13:38:55;95109.56;;;24.60;41.73
7182;BME280;3632;42.724;23.298;2022-09-12T13:41:45;95129.00;;;24.20;43.51
7182;BME280;3632;42.724;23.298;2022-09-12T13:44:19;95074.78;;;23.46;44.77
7182;BME280;3632;42.724;23.298;2022-09-12T13:46:47;95136.97;;;23.60;45.60
7182;BME280;3632;42.724;23.298;2022-09-12T13:49:19;95131.97;;;23.39;46.83
7182;BME280;3632;42.724;23.298;2022-09-12T13:51:56;95092.63;;;22.90;46.70